createdAt,value
2018-02-23T00:01:26.699Z,-2.15
2018-02-23T00:03:54.293Z,-2.18
2018-02-23T00:06:22.128Z,-2.15
2018-02-23T00:08:49.752Z,-2.28
2018-02-23T00:11:17.367Z,-2.30
2018-02-23T00:13:45.149Z,-2.20
2018-02-23T00:16:12.849Z,-2.23
2018-02-23T00:18:40.484Z,-2.26
2018-02-23T00:21:08.075Z,-2.29
2018-02-23T00:23:35.835Z,-2.24
2018-02-23T00:26:03.488Z,-2.14
2018-02-23T00:28:31.305Z,-2.17
2018-02-23T00:30:58.976Z,-2.22
2018-02-23T00:33:26.631Z,-2.12
2018-02-23T00:35:54.219Z,-2.19
2018-02-23T00:38:21.812Z,-2.13
2018-02-23T00:40:49.431Z,-2.17
2018-02-23T00:43:17.256Z,-2.14
2018-02-23T00:45:45.017Z,-2.19
2018-02-23T00:48:12.703Z,-2.17
2018-02-23T00:50:40.396Z,-2.19
2018-02-23T00:53:08.156Z,-2.22
2018-02-23T00:55:35.752Z,-2.17
2018-02-23T00:58:03.336Z,-2.22
2018-02-23T01:00:31.186Z,-2.28
2018-02-23T01:02:58.849Z,-2.26
2018-02-23T01:05:26.643Z,-2.23
2018-02-23T01:07:54.340Z,-2.29
2018-02-23T01:10:22.094Z,-2.26
2018-02-23T01:12:49.701Z,-2.26
2018-02-23T01:15:17.312Z,-2.26
2018-02-23T01:17:44.940Z,-2.40
2018-02-23T01:20:12.587Z,-2.35
2018-02-23T01:22:40.471Z,-2.33
2018-02-23T01:25:08.070Z,-2.27
2018-02-23T01:27:35.822Z,-2.34
2018-02-23T01:30:03.493Z,-2.37
2018-02-23T01:32:31.080Z,-2.36
2018-02-23T01:34:58.806Z,-2.39
2018-02-23T01:37:26.405Z,-2.36
2018-02-23T01:39:54.201Z,-2.40
2018-02-23T01:42:21.872Z,-2.39
2018-02-23T01:44:49.537Z,-2.33
2018-02-23T01:47:17.215Z,-2.33
2018-02-23T01:49:44.954Z,-2.40
2018-02-23T01:52:12.779Z,-2.43
2018-02-23T01:54:40.655Z,-2.43
2018-02-23T01:57:08.329Z,-2.44
2018-02-23T01:59:35.928Z,-2.47
2018-02-23T02:02:03.678Z,-2.49
2018-02-23T02:04:31.359Z,-2.56
2018-02-23T02:06:59.096Z,-2.53
2018-02-23T02:09:26.819Z,-2.55
2018-02-23T02:11:54.574Z,-2.57
2018-02-23T02:14:22.370Z,-2.59
2018-02-23T02:16:49.962Z,-2.62
2018-02-23T02:19:19.414Z,-2.63
2018-02-23T02:21:47.127Z,-2.70
2018-02-23T02:24:14.715Z,-2.61
2018-02-23T02:26:42.385Z,-2.67
2018-02-23T02:29:09.990Z,-2.68
2018-02-23T02:31:37.683Z,-2.75
2018-02-23T02:34:05.625Z,-2.69
2018-02-23T02:36:33.607Z,-2.65
2018-02-23T02:39:01.198Z,-2.58
2018-02-23T02:41:29.054Z,-2.58
2018-02-23T02:43:56.724Z,-2.63
2018-02-23T02:46:24.395Z,-2.47
2018-02-23T02:48:52.251Z,-2.42
2018-02-23T02:51:19.836Z,-2.38
2018-02-23T02:53:47.632Z,-2.39
2018-02-23T02:56:15.293Z,-2.28
2018-02-23T02:58:42.964Z,-2.23
2018-02-23T03:01:10.658Z,-2.21
2018-02-23T03:03:38.305Z,-2.17
2018-02-23T03:06:06.107Z,-2.14
2018-02-23T03:08:33.888Z,-2.08
2018-02-23T03:11:01.719Z,-2.08
2018-02-23T03:13:29.330Z,-2.07
2018-02-23T03:15:56.926Z,-2.08
2018-02-23T03:18:24.578Z,-2.03
2018-02-23T03:20:52.269Z,-2.09
2018-02-23T03:23:19.897Z,-2.02
2018-02-23T03:25:47.606Z,-2.01
2018-02-23T03:28:15.356Z,-1.99
2018-02-23T03:30:43.058Z,-1.96
2018-02-23T03:33:10.726Z,-1.94
2018-02-23T03:35:38.519Z,-1.93
2018-02-23T03:38:06.193Z,-1.88
2018-02-23T03:40:33.866Z,-1.87
2018-02-23T03:43:01.461Z,-1.88
2018-02-23T03:45:29.105Z,-1.91
2018-02-23T03:47:56.861Z,-1.85
2018-02-23T03:50:24.568Z,-1.89
2018-02-23T03:52:52.230Z,-1.94
2018-02-23T03:55:19.834Z,-1.91
2018-02-23T03:57:47.498Z,-1.88
2018-02-23T04:00:15.246Z,-1.91
2018-02-23T04:02:42.854Z,-1.88
2018-02-23T04:05:10.627Z,-1.89
2018-02-23T04:07:38.211Z,-1.85
2018-02-23T04:10:05.810Z,-1.80
2018-02-23T04:12:33.473Z,-1.85
2018-02-23T04:15:01.061Z,-1.81
2018-02-23T04:17:28.656Z,-1.85
2018-02-23T04:19:56.318Z,-1.73
2018-02-23T04:22:23.921Z,-1.75
2018-02-23T04:24:51.721Z,-1.73
2018-02-23T04:27:19.498Z,-1.67
2018-02-23T04:29:47.092Z,-1.72
2018-02-23T04:32:14.728Z,-1.72
2018-02-23T04:34:42.521Z,-1.61
2018-02-23T04:37:10.108Z,-1.64
2018-02-23T04:39:37.749Z,-1.69
2018-02-23T04:42:05.444Z,-1.69
2018-02-23T04:44:33.055Z,-1.68
2018-02-23T04:47:00.805Z,-1.72
2018-02-23T04:49:28.571Z,-1.61
2018-02-23T04:51:56.247Z,-1.59
2018-02-23T04:54:25.050Z,-1.62
2018-02-23T04:56:52.792Z,-1.58
2018-02-23T04:59:20.380Z,-1.61
2018-02-23T05:01:48.077Z,-1.59
2018-02-23T05:04:15.742Z,-1.57
2018-02-23T05:06:43.334Z,-1.57
2018-02-23T05:09:11.005Z,-1.59
2018-02-23T05:11:38.619Z,-1.58
2018-02-23T05:14:06.245Z,-1.60
2018-02-23T05:16:34.029Z,-1.56
2018-02-23T05:19:01.799Z,-1.59
2018-02-23T05:21:29.555Z,-1.53
2018-02-23T05:23:57.172Z,-1.47
2018-02-23T05:26:25.035Z,-1.45
2018-02-23T05:28:52.816Z,-1.45
2018-02-23T05:31:20.545Z,-1.48
2018-02-23T05:33:48.192Z,-1.36
2018-02-23T05:36:15.786Z,-1.41
2018-02-23T05:38:43.574Z,-1.40
2018-02-23T05:41:11.237Z,-1.51
2018-02-23T05:43:38.859Z,-1.43
2018-02-23T05:46:06.618Z,-1.43
2018-02-23T05:48:34.317Z,-1.52
2018-02-23T05:51:01.998Z,-1.37
2018-02-23T05:53:29.745Z,-1.35
2018-02-23T05:55:57.333Z,-1.39
2018-02-23T05:58:24.903Z,-1.46
2018-02-23T06:00:52.583Z,-1.49
2018-02-23T06:03:20.184Z,-1.39
2018-02-23T06:05:47.782Z,-1.38
2018-02-23T06:08:15.412Z,-1.39
2018-02-23T06:10:43.099Z,-1.41
2018-02-23T06:13:10.872Z,-1.38
2018-02-23T06:15:44.273Z,-1.45
2018-02-23T06:18:11.897Z,-1.47
2018-02-23T06:20:39.513Z,-1.47
2018-02-23T06:23:07.200Z,-1.56
2018-02-23T06:25:34.929Z,-1.67
2018-02-23T06:28:02.542Z,-1.70
2018-02-23T06:30:30.145Z,-1.74
2018-02-23T06:32:57.796Z,-1.73
2018-02-23T06:35:25.578Z,-1.80
2018-02-23T06:37:53.260Z,-1.92
2018-02-23T06:40:20.927Z,-1.82
2018-02-23T06:42:48.713Z,-1.83
2018-02-23T06:45:16.486Z,-1.84
2018-02-23T06:47:44.074Z,-1.88
2018-02-23T06:50:11.735Z,-1.88
2018-02-23T06:52:39.398Z,-1.87
2018-02-23T06:55:07.188Z,-1.89
2018-02-23T06:57:35.070Z,-1.95
2018-02-23T07:00:02.724Z,-1.90
2018-02-23T07:02:30.411Z,-1.90
2018-02-23T07:04:58.200Z,-1.90
2018-02-23T07:07:25.958Z,-1.89
2018-02-23T07:09:53.721Z,-1.87
2018-02-23T07:12:21.360Z,-1.94
2018-02-23T07:14:49.001Z,-1.89
2018-02-23T07:17:16.779Z,-1.85
2018-02-23T07:19:44.437Z,-1.85
2018-02-23T07:22:12.025Z,-1.86
2018-02-23T07:24:39.604Z,-1.82
2018-02-23T07:27:07.335Z,-1.78
2018-02-23T07:29:35.154Z,-1.74
2018-02-23T07:32:02.820Z,-1.73
2018-02-23T07:34:30.504Z,-1.67
2018-02-23T07:36:58.286Z,-1.67
2018-02-23T07:39:25.957Z,-1.62
2018-02-23T07:41:53.731Z,-1.58
2018-02-23T07:44:21.410Z,-1.55
2018-02-23T07:46:49.000Z,-1.54
2018-02-23T07:49:16.867Z,-1.50
2018-02-23T07:51:44.540Z,-1.48
2018-02-23T07:54:12.216Z,-1.41
2018-02-23T07:56:40.099Z,-1.37
2018-02-23T07:59:07.880Z,-1.27
2018-02-23T08:01:35.537Z,-1.28
2018-02-23T08:04:03.218Z,-1.21
2018-02-23T08:06:30.904Z,-1.21
2018-02-23T08:08:58.567Z,-1.16
2018-02-23T08:11:26.328Z,-1.13
2018-02-23T08:13:54.024Z,-1.09
2018-02-23T08:16:21.695Z,-1.05
2018-02-23T08:18:49.374Z,-1.04
2018-02-23T08:21:17.046Z,-0.90
2018-02-23T08:23:44.735Z,-0.91
2018-02-23T08:26:12.387Z,-0.90
2018-02-23T08:28:39.962Z,-0.87
2018-02-23T08:31:07.787Z,-0.82
2018-02-23T08:33:35.379Z,-0.85
2018-02-23T08:36:03.004Z,-0.73
2018-02-23T08:38:30.641Z,-0.72
2018-02-23T08:40:58.346Z,-0.67
2018-02-23T08:43:26.141Z,-0.62
2018-02-23T08:45:53.905Z,-0.49
2018-02-23T08:48:21.692Z,-0.55
2018-02-23T08:50:49.358Z,-0.47
2018-02-23T08:53:16.981Z,-0.50
2018-02-23T08:55:44.677Z,-0.38
2018-02-23T08:58:12.597Z,-0.34
2018-02-23T09:00:46.210Z,-0.50
2018-02-23T09:03:14.092Z,-0.44
2018-02-23T09:05:41.761Z,-0.47
2018-02-23T09:08:09.548Z,-0.46
2018-02-23T09:10:37.210Z,-0.35
2018-02-23T09:13:04.797Z,-0.35
2018-02-23T09:15:32.471Z,-0.24
2018-02-23T09:18:00.249Z,-0.18
2018-02-23T09:20:27.829Z,0.04
2018-02-23T09:22:55.707Z,0.12
2018-02-23T09:25:23.366Z,0.11
2018-02-23T09:27:51.155Z,-0.11
2018-02-23T09:30:18.833Z,-0.01
2018-02-23T09:32:46.522Z,0.01
2018-02-23T09:35:14.096Z,0.03
2018-02-23T09:37:41.749Z,0.08
2018-02-23T09:40:09.538Z,0.25
2018-02-23T09:42:37.188Z,0.23
2018-02-23T09:45:04.820Z,0.41
2018-02-23T09:47:32.455Z,0.39
2018-02-23T09:50:00.182Z,0.53
2018-02-23T09:52:28.015Z,0.44
2018-02-23T09:54:55.766Z,0.38
2018-02-23T09:57:23.457Z,0.54
2018-02-23T09:59:51.076Z,0.60
2018-02-23T10:02:18.688Z,0.71
2018-02-23T10:04:46.254Z,0.67
2018-02-23T10:07:14.047Z,0.72
2018-02-23T10:09:41.730Z,0.85
2018-02-23T10:12:09.300Z,0.63
2018-02-23T10:14:36.979Z,0.17
2018-02-23T10:17:04.767Z,0.35
2018-02-23T10:19:32.340Z,0.29
2018-02-23T10:21:59.996Z,0.33
2018-02-23T10:24:27.678Z,0.60
2018-02-23T10:26:55.367Z,0.53
2018-02-23T10:29:23.030Z,0.49
2018-02-23T10:31:50.710Z,0.83
2018-02-23T10:34:18.399Z,0.93
2018-02-23T10:36:46.016Z,0.87
2018-02-23T10:39:13.611Z,0.96
2018-02-23T10:41:41.251Z,1.31
2018-02-23T10:44:08.886Z,1.57
2018-02-23T10:46:36.491Z,1.91
2018-02-23T10:49:04.300Z,1.91
2018-02-23T10:51:31.900Z,1.66
2018-02-23T10:53:59.680Z,1.97
2018-02-23T10:56:27.363Z,2.06
2018-02-23T10:58:55.035Z,1.48
2018-02-23T11:01:22.656Z,1.37
2018-02-23T11:03:50.299Z,1.52
2018-02-23T11:06:17.868Z,1.58
2018-02-23T11:08:45.530Z,1.41
2018-02-23T11:11:13.197Z,1.20
2018-02-23T11:13:40.986Z,1.10
2018-02-23T11:16:08.880Z,1.12
2018-02-23T11:18:36.644Z,0.99
2018-02-23T11:21:04.534Z,0.92
2018-02-23T11:23:32.192Z,0.68
2018-02-23T11:25:59.885Z,0.87
2018-02-23T11:28:27.609Z,1.15
2018-02-23T11:30:55.220Z,1.34
2018-02-23T11:33:23.015Z,1.87
2018-02-23T11:35:50.784Z,1.84
2018-02-23T11:38:18.458Z,2.07
2018-02-23T11:40:46.046Z,1.76
2018-02-23T11:43:13.679Z,1.81
2018-02-23T11:45:41.494Z,1.67
2018-02-23T11:48:09.155Z,1.53
2018-02-23T11:50:36.944Z,1.60
2018-02-23T11:53:04.721Z,1.66
2018-02-23T11:55:32.293Z,1.47
2018-02-23T11:58:05.372Z,1.51
2018-02-23T12:00:32.973Z,1.76
2018-02-23T12:03:00.644Z,1.74
2018-02-23T12:05:28.308Z,1.62
2018-02-23T12:07:56.102Z,1.49
2018-02-23T12:10:23.681Z,1.63
2018-02-23T12:12:51.456Z,1.60
2018-02-23T12:15:19.084Z,1.55
2018-02-23T12:17:46.652Z,1.70
2018-02-23T12:20:14.582Z,1.82
2018-02-23T12:22:42.168Z,2.12
2018-02-23T12:25:09.886Z,2.08
2018-02-23T12:27:37.609Z,2.27
2018-02-23T12:30:05.265Z,2.53
2018-02-23T12:32:32.831Z,2.73
2018-02-23T12:35:00.634Z,2.48
2018-02-23T12:37:28.229Z,2.58
2018-02-23T12:39:55.882Z,2.72
2018-02-23T12:42:23.661Z,2.58
2018-02-23T12:44:51.321Z,2.42
2018-02-23T12:47:18.966Z,2.12
2018-02-23T12:49:46.573Z,2.22
2018-02-23T12:52:14.258Z,2.34
2018-02-23T12:54:41.909Z,2.05
2018-02-23T12:57:09.482Z,2.21
2018-02-23T12:59:37.188Z,1.82
2018-02-23T13:02:04.951Z,1.88
2018-02-23T13:04:32.640Z,2.23
2018-02-23T13:07:00.462Z,2.11
2018-02-23T13:09:28.199Z,2.16
2018-02-23T13:11:55.918Z,2.09
2018-02-23T13:14:29.198Z,2.07
2018-02-23T13:16:56.847Z,2.12
2018-02-23T13:19:24.517Z,2.19
2018-02-23T13:21:52.156Z,1.99
2018-02-23T13:24:20.268Z,2.04
2018-02-23T13:26:48.171Z,1.97
2018-02-23T13:29:16.010Z,1.90
2018-02-23T13:31:43.712Z,1.88
2018-02-23T13:34:11.389Z,1.89
2018-02-23T13:36:39.074Z,1.97
2018-02-23T13:39:06.801Z,2.07
2018-02-23T13:41:39.936Z,2.04
2018-02-23T13:44:07.509Z,2.07
2018-02-23T13:46:35.203Z,2.25
2018-02-23T13:49:02.981Z,2.10
2018-02-23T13:51:30.740Z,2.16
2018-02-23T13:54:03.988Z,2.18
2018-02-23T13:56:31.673Z,2.22
2018-02-23T13:58:59.296Z,2.26
2018-02-23T14:01:26.865Z,2.23
2018-02-23T14:03:54.529Z,2.17
2018-02-23T14:06:27.668Z,2.28
2018-02-23T14:08:55.302Z,2.18
2018-02-23T14:11:22.915Z,2.28
2018-02-23T14:13:50.492Z,2.45
2018-02-23T14:16:18.251Z,2.19
2018-02-23T14:18:46.051Z,2.18
2018-02-23T14:21:13.666Z,2.26
2018-02-23T14:23:41.469Z,2.37
2018-02-23T14:26:09.278Z,2.47
2018-02-23T14:28:37.053Z,2.40
2018-02-23T14:31:04.795Z,2.34
2018-02-23T14:33:32.437Z,2.25
2018-02-23T14:36:00.042Z,2.19
2018-02-23T14:38:27.612Z,2.31
2018-02-23T14:40:55.248Z,2.27
2018-02-23T14:43:22.841Z,2.12
2018-02-23T14:45:50.475Z,2.04
2018-02-23T14:48:30.135Z,2.23
2018-02-23T14:51:09.891Z,2.12
2018-02-23T14:53:37.463Z,2.15
2018-02-23T14:56:05.125Z,2.21
2018-02-23T14:58:32.828Z,2.09
2018-02-23T15:01:00.418Z,2.09
2018-02-23T15:03:27.984Z,2.04
2018-02-23T15:05:55.696Z,2.01
2018-02-23T15:08:23.302Z,1.98
2018-02-23T15:10:51.363Z,2.00
2018-02-23T15:13:19.182Z,1.88
2018-02-23T15:15:46.751Z,2.04
2018-02-23T15:18:14.568Z,2.03
2018-02-23T15:20:42.381Z,2.01
2018-02-23T15:23:10.075Z,1.85
2018-02-23T15:25:37.756Z,1.72
2018-02-23T15:28:05.540Z,1.69
2018-02-23T15:30:45.299Z,1.67
2018-02-23T15:33:12.968Z,1.64
2018-02-23T15:35:40.647Z,1.66
2018-02-23T15:38:08.255Z,1.66
2018-02-23T15:40:35.994Z,1.63
2018-02-23T15:43:03.577Z,1.56
2018-02-23T15:45:31.244Z,1.45
2018-02-23T15:50:59.887Z,1.39
2018-02-23T15:53:27.646Z,1.32
2018-02-23T15:55:55.335Z,1.30
2018-02-23T15:58:35.876Z,1.25
2018-02-23T16:01:03.694Z,1.23
2018-02-23T16:03:31.355Z,1.20
2018-02-23T16:05:59.130Z,1.11
2018-02-23T16:08:26.744Z,1.05
2018-02-23T16:10:54.329Z,1.00
2018-02-23T16:13:22.180Z,0.94
2018-02-23T16:15:49.846Z,0.85
2018-02-23T16:18:17.481Z,0.90
2018-02-23T16:20:45.189Z,0.78
2018-02-23T16:23:12.771Z,0.70
2018-02-23T16:25:40.386Z,0.69
2018-02-23T16:28:08.120Z,0.67
2018-02-23T16:30:35.785Z,0.55
2018-02-23T16:33:03.402Z,0.63
2018-02-23T16:35:31.197Z,0.53
2018-02-23T16:37:58.928Z,0.40
2018-02-23T16:40:26.532Z,0.41
2018-02-23T16:42:54.280Z,0.40
2018-02-23T16:45:21.939Z,0.29
2018-02-23T16:47:49.626Z,0.33
2018-02-23T16:50:17.421Z,0.26
2018-02-23T16:52:45.191Z,0.19
2018-02-23T16:55:12.857Z,0.12
2018-02-23T16:57:40.644Z,0.15
2018-02-23T17:00:08.303Z,0.01
2018-02-23T17:02:35.985Z,0.04
2018-02-23T17:05:03.819Z,0.04
2018-02-23T17:07:31.467Z,0.02
2018-02-23T17:09:59.324Z,-0.02
2018-02-23T17:12:26.967Z,-0.06
2018-02-23T17:14:54.569Z,-0.15
2018-02-23T17:17:22.149Z,-0.11
2018-02-23T17:19:49.806Z,-0.14
2018-02-23T17:22:17.598Z,-0.18
2018-02-23T17:24:46.292Z,-0.16
2018-02-23T17:27:13.967Z,-0.21
2018-02-23T17:29:41.632Z,-0.21
2018-02-23T17:32:09.321Z,-0.28
2018-02-23T17:34:36.987Z,-0.26
2018-02-23T17:37:04.633Z,-0.26
2018-02-23T17:39:32.213Z,-0.29
2018-02-23T17:42:00.016Z,-0.30
2018-02-23T17:44:27.687Z,-0.35
2018-02-23T17:46:55.266Z,-0.35
2018-02-23T17:49:22.934Z,-0.37
2018-02-23T17:51:50.681Z,-0.41
2018-02-23T17:54:18.292Z,-0.40
2018-02-23T17:56:45.903Z,-0.40
2018-02-23T17:59:13.481Z,-0.45
2018-02-23T18:01:41.216Z,-0.40
2018-02-23T18:04:08.881Z,-0.40
2018-02-23T18:06:36.585Z,-0.42
2018-02-23T18:09:04.339Z,-0.43
2018-02-23T18:11:32.022Z,-0.45
2018-02-23T18:13:59.606Z,-0.48
2018-02-23T18:16:27.267Z,-0.54
2018-02-23T18:18:55.119Z,-0.50
2018-02-23T18:21:22.830Z,-0.53
2018-02-23T18:23:50.494Z,-0.60
2018-02-23T18:26:18.282Z,-0.60
2018-02-23T18:28:45.944Z,-0.61
2018-02-23T18:31:13.637Z,-0.69
2018-02-23T18:33:41.517Z,-0.67
2018-02-23T18:36:09.100Z,-0.73
2018-02-23T18:38:36.761Z,-0.71
2018-02-23T18:41:04.607Z,-0.79
2018-02-23T18:43:32.224Z,-0.73
2018-02-23T18:45:59.876Z,-0.78
2018-02-23T18:48:27.507Z,-0.78
2018-02-23T18:50:55.240Z,-0.83
2018-02-23T18:53:22.985Z,-0.86
2018-02-23T18:55:50.682Z,-0.94
2018-02-23T18:58:18.369Z,-0.89
2018-02-23T19:00:46.259Z,-0.95
2018-02-23T19:03:13.841Z,-0.96
2018-02-23T19:05:41.537Z,-1.02
2018-02-23T19:08:09.158Z,-1.03
2018-02-23T19:10:36.951Z,-1.01
2018-02-23T19:13:04.624Z,-1.04
2018-02-23T19:15:32.403Z,-1.05
2018-02-23T19:18:00.282Z,-1.12
2018-02-23T19:20:27.860Z,-1.10
2018-02-23T19:22:55.736Z,-1.20
2018-02-23T19:25:23.474Z,-1.18
2018-02-23T19:27:51.098Z,-1.18
2018-02-23T19:30:18.799Z,-1.23
2018-02-23T19:32:46.444Z,-1.30
2018-02-23T19:35:14.221Z,-1.25
2018-02-23T19:37:42.102Z,-1.31
2018-02-23T19:40:09.764Z,-1.33
2018-02-23T19:42:37.555Z,-1.25
2018-02-23T19:45:05.319Z,-1.27
2018-02-23T19:47:32.907Z,-1.32
2018-02-23T19:50:00.534Z,-1.31
2018-02-23T19:52:28.237Z,-1.32
2018-02-23T19:54:55.822Z,-1.40
2018-02-23T19:57:23.410Z,-1.37
2018-02-23T19:59:51.166Z,-1.41
2018-02-23T20:02:18.744Z,-1.41
2018-02-23T20:04:46.326Z,-1.40
2018-02-23T20:07:13.960Z,-1.45
2018-02-23T20:09:41.551Z,-1.46
2018-02-23T20:12:09.246Z,-1.45
2018-02-23T20:14:36.923Z,-1.45
2018-02-23T20:17:04.534Z,-1.46
2018-02-23T20:19:32.273Z,-1.52
2018-02-23T20:22:00.049Z,-1.55
2018-02-23T20:24:27.792Z,-1.70
2018-02-23T20:26:55.490Z,-1.68
2018-02-23T20:29:23.166Z,-1.60
2018-02-23T20:31:50.751Z,-1.64
2018-02-23T20:34:18.401Z,-1.66
2018-02-23T20:36:46.096Z,-1.75
2018-02-23T20:39:13.681Z,-1.72
2018-02-23T20:41:41.560Z,-1.69
2018-02-23T20:44:09.220Z,-1.75
2018-02-23T20:46:36.905Z,-1.81
2018-02-23T20:49:04.481Z,-1.80
2018-02-23T20:51:32.251Z,-1.76
2018-02-23T20:54:00.039Z,-1.76
2018-02-23T20:56:27.631Z,-1.78
2018-02-23T20:58:55.262Z,-1.79
2018-02-23T21:01:22.904Z,-1.81
2018-02-23T21:03:50.532Z,-1.81
2018-02-23T21:06:18.197Z,-1.82
2018-02-23T21:08:45.841Z,-1.83
2018-02-23T21:11:13.667Z,-1.79
2018-02-23T21:13:41.252Z,-1.79
2018-02-23T21:16:08.898Z,-1.80
2018-02-23T21:18:36.690Z,-1.83
2018-02-23T21:21:04.355Z,-1.94
2018-02-23T21:23:32.077Z,-1.92
2018-02-23T21:25:59.683Z,-1.88
2018-02-23T21:28:27.491Z,-1.98
2018-02-23T21:30:55.109Z,-1.96
2018-02-23T21:33:22.740Z,-1.97
2018-02-23T21:35:50.348Z,-1.99
2018-02-23T21:38:18.084Z,-2.05
2018-02-23T21:40:45.759Z,-2.09
2018-02-23T21:43:13.392Z,-2.09
2018-02-23T21:45:41.002Z,-2.09
2018-02-23T21:48:08.683Z,-2.08
2018-02-23T21:50:36.470Z,-2.04
2018-02-23T21:53:04.139Z,-2.12
2018-02-23T21:55:31.825Z,-2.10
2018-02-23T21:57:59.477Z,-2.15
2018-02-23T22:00:27.066Z,-2.13
2018-02-23T22:02:54.949Z,-2.12
2018-02-23T22:05:22.659Z,-2.22
2018-02-23T22:07:50.289Z,-2.26
2018-02-23T22:10:17.900Z,-2.23
2018-02-23T22:12:45.539Z,-2.23
2018-02-23T22:15:13.179Z,-2.24
2018-02-23T22:17:41.007Z,-2.35
2018-02-23T22:20:08.589Z,-2.31
2018-02-23T22:22:36.341Z,-2.28
2018-02-23T22:25:04.022Z,-2.20
2018-02-23T22:27:31.708Z,-2.23
2018-02-23T22:29:59.475Z,-2.19
2018-02-23T22:32:27.233Z,-2.29
2018-02-23T22:34:54.864Z,-2.27
2018-02-23T22:37:22.461Z,-2.23
2018-02-23T22:39:50.084Z,-2.25
2018-02-23T22:42:17.856Z,-2.33
2018-02-23T22:44:45.531Z,-2.24
2018-02-23T22:47:13.119Z,-2.35
2018-02-23T22:49:40.770Z,-2.35
2018-02-23T22:52:08.368Z,-2.41
2018-02-23T22:54:35.973Z,-2.39
2018-02-23T22:57:03.637Z,-2.28
2018-02-23T22:59:31.281Z,-2.35
2018-02-23T23:01:58.963Z,-2.42
2018-02-23T23:04:26.736Z,-2.35
2018-02-23T23:06:54.408Z,-2.42
2018-02-23T23:09:21.996Z,-2.44
2018-02-23T23:11:49.867Z,-2.46
2018-02-23T23:14:17.613Z,-2.56
2018-02-23T23:16:45.255Z,-2.69
2018-02-23T23:19:12.890Z,-2.55
2018-02-23T23:21:40.494Z,-2.46
2018-02-23T23:24:08.239Z,-2.41
2018-02-23T23:26:35.861Z,-2.60
2018-02-23T23:29:03.696Z,-2.48
2018-02-23T23:31:31.368Z,-2.47
2018-02-23T23:33:58.963Z,-2.55
2018-02-23T23:36:26.588Z,-2.58
2018-02-23T23:38:54.401Z,-2.58
2018-02-23T23:41:22.069Z,-2.57
2018-02-23T23:43:49.740Z,-2.57
2018-02-23T23:46:17.327Z,-2.50
2018-02-23T23:48:44.995Z,-2.59
2018-02-23T23:51:12.777Z,-2.61
2018-02-23T23:53:40.652Z,-2.62
2018-02-23T23:56:08.224Z,-2.55
2018-02-23T23:58:35.894Z,-2.62
